Time;durP1;ratioP1;P1;durP2;ratioP2;P2;SDS_P1;SDS_P2;PMS_P1;PMS_P2;Temp;Humidity;BMP_temperature;BMP_pressure;BME280_temperature;BME280_humidity;BME280_pressure;Samples;Min_cycle;Max_cycle;Signal;HPM_P1;HPM_P2
2021/10/08 07:10:59;;;;;;;1.38;0.60;;;20.30;99.90;;;;;;2219555;54;52388;-75
2021/10/08 07:13:25;;;;;;;1.90;0.40;;;13.30;99.90;;;;;;2621577;54;20034;-76
2021/10/08 07:15:51;;;;;;;1.23;0.30;;;13.00;99.90;;;;;;2621742;54;20049;-73
2021/10/08 07:18:23;;;;;;;1.40;0.40;;;13.30;99.90;;;;;;2618951;46;20023;-74
2021/10/08 07:20:49;;;;;;;2.03;0.40;;;13.70;99.90;;;;;;2620075;54;20554;-74
2021/10/08 07:23:16;;;;;;;1.27;0.47;;;13.90;99.90;;;;;;2620445;54;20025;-74
2021/10/08 07:25:42;;;;;;;1.73;0.60;;;14.20;99.90;;;;;;2620100;46;20545;-73
2021/10/08 07:28:11;;;;;;;1.10;0.50;;;14.40;99.90;;;;;;2620176;54;20018;-73
2021/10/08 07:30:37;;;;;;;2.25;0.50;;;14.40;99.90;;;;;;2619636;54;20028;-73
2021/10/08 07:33:03;;;;;;;2.15;0.35;;;14.40;99.90;;;;;;2619198;46;20027;-72
2021/10/08 07:35:29;;;;;;;1.48;0.32;;;14.50;99.90;;;;;;2619043;47;20083;-73
2021/10/08 07:37:55;;;;;;;1.33;0.40;;;14.50;99.90;;;;;;2621840;54;20046;-73
2021/10/08 07:40:21;;;;;;;0.60;0.20;;;14.80;99.90;;;;;;2620907;47;20034;-72
2021/10/08 07:42:47;;;;;;;1.92;0.30;;;15.10;99.90;;;;;;2622295;54;20022;-75
2021/10/08 07:45:16;;;;;;;0.70;0.30;;;15.20;99.90;;;;;;2620921;54;20041;-73
2021/10/08 07:47:42;;;;;;;1.33;0.43;;;15.20;99.90;;;;;;2620611;54;20018;-77
2021/10/08 07:50:10;;;;;;;0.73;0.30;;;15.50;99.90;;;;;;2621676;54;20022;-74
2021/10/08 07:52:36;;;;;;;1.65;0.30;;;15.80;99.70;;;;;;2622048;39;20417;-75
2021/10/08 07:55:03;;;;;;;0.68;0.30;;;15.70;99.60;;;;;;2620817;39;20077;-75
2021/10/08 07:57:29;;;;;;;1.52;0.30;;;16.10;98.90;;;;;;2623227;46;20033;-76
2021/10/08 07:59:55;;;;;;;0.68;0.28;;;16.20;99.00;;;;;;2620633;54;20061;-75
2021/10/08 08:02:24;;;;;;;0.77;0.30;;;16.10;98.30;;;;;;2620370;54;20030;-74
2021/10/08 08:04:50;;;;;;;1.05;0.28;;;16.50;97.70;;;;;;2621317;39;20421;-77
2021/10/08 08:07:16;;;;;;;0.25;0.10;;;16.50;95.80;;;;;;2622770;39;20418;-73
2021/10/08 08:09:42;;;;;;;0.10;0.10;;;16.80;96.10;;;;;;2620821;54;20552;-75
2021/10/08 08:12:08;;;;;;;0.88;0.10;;;16.90;96.60;;;;;;2620452;46;20027;-75
2021/10/08 08:14:34;;;;;;;1.38;0.20;;;17.10;96.40;;;;;;2621193;54;20576;-74
2021/10/08 08:17:00;;;;;;;1.65;0.40;;;17.30;96.50;;;;;;2620259;54;20058;-75
2021/10/08 08:19:29;;;;;;;3.30;0.30;;;17.00;95.90;;;;;;2619542;54;20121;-73
2021/10/08 08:21:55;;;;;;;1.13;0.30;;;17.00;96.20;;;;;;2621193;39;20398;-74
2021/10/08 08:24:21;;;;;;;0.65;0.32;;;17.30;95.00;;;;;;2622056;31;20431;-76
2021/10/08 08:26:47;;;;;;;2.90;0.30;;;17.30;96.60;;;;;;2620533;54;20029;-75
2021/10/08 08:29:13;;;;;;;0.22;0.22;;;17.30;97.50;;;;;;2622694;46;20027;-74
2021/10/08 08:31:41;;;;;;;0.85;0.35;;;17.50;96.20;;;;;;2622071;54;20022;-74
2021/10/08 08:34:07;;;;;;;0.30;0.10;;;17.60;96.50;;;;;;2621867;46;20022;-75
2021/10/08 08:36:36;;;;;;;1.20;0.40;;;17.90;95.10;;;;;;2623205;54;20196;-74
2021/10/08 08:39:06;;;;;;;1.00;0.50;;;18.00;95.20;;;;;;2622047;54;20061;-74
2021/10/08 08:41:32;;;;;;;0.65;0.20;;;18.10;94.30;;;;;;2620156;54;20019;-76
2021/10/08 08:43:58;;;;;;;1.05;0.40;;;18.20;94.10;;;;;;2620363;46;20030;-73
2021/10/08 08:46:24;;;;;;;0.30;0.20;;;18.30;93.50;;;;;;2619647;47;20031;-74
2021/10/08 08:48:50;;;;;;;0.80;0.20;;;18.10;93.90;;;;;;2620430;54;20025;-75
2021/10/08 08:51:16;;;;;;;0.50;0.10;;;18.30;96.10;;;;;;2619547;46;20039;-74
2021/10/08 08:53:45;;;;;;;0.77;0.17;;;18.20;94.20;;;;;;2619385;47;20113;-75
2021/10/08 08:56:11;;;;;;;0.73;0.15;;;18.80;94.20;;;;;;2619529;54;20027;-75
2021/10/08 08:58:37;;;;;;;2.58;0.20;;;18.40;93.70;;;;;;2620195;54;20023;-76
2021/10/08 09:01:04;;;;;;;1.85;0.20;;;18.20;93.90;;;;;;2621666;54;20053;-74
2021/10/08 09:03:30;;;;;;;0.47;0.20;;;18.00;94.10;;;;;;2619956;46;20118;-74
2021/10/08 09:05:56;;;;;;;4.50;0.35;;;17.80;95.30;;;;;;2623412;47;20112;-74
2021/10/08 09:10:59;;;;;;;3.40;1.40;;;17.90;96.10;;;;;;2622561;31;20134;-76
2021/10/08 09:13:27;;;;;;;3.00;1.58;;;18.10;96.30;;;;;;2622049;54;20603;-75
2021/10/08 09:15:58;;;;;;;2.08;0.82;;;18.70;95.30;;;;;;2628969;39;20418;-74
2021/10/08 09:18:26;;;;;;;0.80;0.40;;;18.80;94.10;;;;;;2683346;36;20031;-73
2021/10/08 09:21:08;;;;;;;1.65;0.50;;;18.60;93.50;;;;;;2619082;47;20029;-75
2021/10/08 09:23:38;;;;;;;5.10;0.50;;;19.00;93.90;;;;;;2620687;47;20030;-73
2021/10/08 09:26:14;;;;;;;0.98;0.40;;;19.50;94.30;;;;;;2619669;54;20015;-75
2021/10/08 09:28:52;;;;;;;0.90;0.32;;;19.30;92.50;;;;;;2618776;39;20356;-74
2021/10/08 09:31:18;;;;;;;0.63;0.10;;;19.50;93.40;;;;;;2619798;39;20426;-73
2021/10/08 09:33:44;;;;;;;0.30;0.10;;;19.40;92.90;;;;;;2619779;54;20536;-77
2021/10/08 09:36:15;;;;;;;0.63;0.20;;;19.60;92.10;;;;;;2620393;54;20023;-75
2021/10/08 09:38:42;;;;;;;0.70;0.20;;;19.80;92.30;;;;;;2619442;54;20042;-73
2021/10/08 09:41:11;;;;;;;3.83;0.38;;;19.70;92.10;;;;;;2618617;47;20030;-73
2021/10/08 09:43:37;;;;;;;2.30;0.30;;;19.50;91.70;;;;;;2620130;39;20406;-73
2021/10/08 09:46:05;;;;;;;1.55;0.43;;;19.30;92.30;;;;;;2620284;54;20070;-74
2021/10/08 09:48:42;;;;;;;1.17;0.30;;;19.50;92.30;;;;;;2619592;47;20027;-73
2021/10/08 09:51:10;;;;;;;0.57;0.30;;;19.70;92.00;;;;;;2620097;54;20026;-75
2021/10/08 09:53:51;;;;;;;0.50;0.30;;;19.70;91.40;;;;;;2619603;47;20049;-75
2021/10/08 09:56:32;;;;;;;0.50;0.30;;;19.70;91.40;;;;;;2620317;54;20023;-74
2021/10/08 09:58:59;;;;;;;0.65;0.25;;;19.80;92.00;;;;;;2620018;54;20018;-74
2021/10/08 10:01:27;;;;;;;0.40;0.20;;;19.90;90.70;;;;;;2619458;47;20544;-75
2021/10/08 10:03:54;;;;;;;1.13;0.20;;;19.90;91.40;;;;;;2618884;47;20053;-74
2021/10/08 10:06:20;;;;;;;0.70;0.20;;;20.00;91.30;;;;;;2619115;46;20070;-72
2021/10/08 10:08:49;;;;;;;0.80;0.30;;;20.10;90.90;;;;;;2619537;54;20025;-73
2021/10/08 10:11:16;;;;;;;1.75;0.30;;;19.60;90.80;;;;;;2619758;54;20015;-72
2021/10/08 10:13:46;;;;;;;1.02;0.30;;;19.70;91.30;;;;;;2619655;54;20041;-75
2021/10/08 10:16:14;;;;;;;0.65;0.20;;;19.60;91.90;;;;;;2619844;54;20018;-76
2021/10/08 10:18:41;;;;;;;2.15;0.20;;;20.20;91.00;;;;;;2619679;46;20054;-76
2021/10/08 10:21:09;;;;;;;0.65;0.20;;;20.40;92.00;;;;;;2619511;46;20027;-74
2021/10/08 10:23:37;;;;;;;1.33;0.20;;;20.80;91.90;;;;;;2625383;54;20530;-74
2021/10/08 10:26:03;;;;;;;0.47;0.20;;;21.00;92.00;;;;;;2621441;54;20038;-75
2021/10/08 10:28:29;;;;;;;1.02;0.13;;;21.10;91.90;;;;;;2620731;39;20409;-75
2021/10/08 10:30:58;;;;;;;0.98;0.20;;;21.30;91.00;;;;;;2621449;54;20138;-75
2021/10/08 10:33:27;;;;;;;0.70;0.20;;;21.20;90.90;;;;;;2621099;54;20019;-74
2021/10/08 10:35:56;;;;;;;0.28;0.10;;;21.40;91.50;;;;;;2621295;54;20050;-72
2021/10/08 10:38:43;;;;;;;0.30;0.20;;;21.00;89.10;;;;;;2621318;46;20022;-76
2021/10/08 10:41:27;;;;;;;0.90;0.10;;;21.00;91.10;;;;;;2620480;46;20607;-76
2021/10/08 10:43:56;;;;;;;0.90;0.20;;;21.30;90.10;;;;;;2620994;54;20109;-76
2021/10/08 10:52:24;;;;;;;0.55;0.30;;;21.60;90.30;;;;;;2621586;39;20414;-77
2021/10/08 10:55:02;;;;;;;1.40;0.20;;;21.50;90.10;;;;;;2620780;46;20563;-74
2021/10/08 10:58:01;;;;;;;0.30;0.13;;;22.00;89.80;;;;;;2621222;46;20033;-75
2021/10/08 11:00:38;;;;;;;2.25;0.10;;;21.60;91.10;;;;;;2621638;54;20014;-75
2021/10/08 11:03:09;;;;;;;0.38;0.15;;;22.00;91.30;;;;;;2620343;54;20062;-74
2021/10/08 11:05:38;;;;;;;0.10;0.10;;;22.30;89.70;;;;;;2620762;54;20077;-75
2021/10/08 11:08:10;;;;;;;0.30;0.20;;;22.10;90.10;;;;;;2619816;46;20030;-74
2021/10/08 11:10:37;;;;;;;0.20;0.10;;;21.50;89.20;;;;;;2619766;46;20037;-74
2021/10/08 11:13:28;;;;;;;0.50;0.10;;;21.30;91.00;;;;;;2620009;54;20026;-73
2021/10/08 11:15:57;;;;;;;1.95;0.20;;;21.90;90.50;;;;;;2620024;54;20526;-74
2021/10/08 11:18:40;;;;;;;0.38;0.20;;;21.90;88.60;;;;;;2620302;54;20019;-75
2021/10/08 11:21:07;;;;;;;;;;;22.40;91.60;;;;;;2620022;54;20014;-73
2021/10/08 11:23:36;;;;;;;1.02;0.20;;;22.00;88.90;;;;;;2619700;54;19962;-75
2021/10/08 11:26:05;;;;;;;1.55;0.20;;;21.90;86.70;;;;;;2619023;46;20610;-74
2021/10/08 11:28:33;;;;;;;1.10;0.10;;;21.90;90.00;;;;;;2619703;46;20545;-73
2021/10/08 11:31:00;;;;;;;0.45;0.15;;;21.00;88.50;;;;;;2619341;46;20031;-74
2021/10/08 11:33:41;;;;;;;1.20;0.20;;;21.20;89.60;;;;;;2621680;54;20030;-75
2021/10/08 11:36:22;;;;;;;0.50;0.20;;;21.20;89.90;;;;;;2619206;54;20022;-76
2021/10/08 11:38:53;;;;;;;1.38;0.20;;;22.00;89.70;;;;;;2620039;54;20054;-74
2021/10/08 11:41:21;;;;;;;2.15;0.20;;;22.10;89.20;;;;;;2622796;54;20049;-75
2021/10/08 11:43:55;;;;;;;0.32;0.20;;;21.40;89.10;;;;;;2620431;54;20112;-73
2021/10/08 11:49:03;;;;;;;3.42;0.15;;;21.90;87.90;;;;;;2619632;54;20034;-75
2021/10/08 11:51:29;;;;;;;0.90;0.27;;;22.00;88.00;;;;;;2620550;46;20551;-73
2021/10/08 11:53:56;;;;;;;0.73;0.20;;;22.30;88.80;;;;;;2622578;39;20403;-74
2021/10/08 11:56:27;;;;;;;2.08;1.00;;;22.30;86.40;;;;;;2619942;54;20029;-74
2021/10/08 11:59:09;;;;;;;1.05;0.20;;;22.70;86.00;;;;;;2619151;46;20026;-72
2021/10/08 12:01:37;;;;;;;2.03;0.17;;;21.40;85.10;;;;;;2619897;47;20029;-74
2021/10/08 12:04:18;;;;;;;0.25;0.20;;;22.20;86.00;;;;;;2619075;54;20556;-71
2021/10/08 12:06:44;;;;;;;1.17;0.20;;;22.30;84.70;;;;;;2618283;54;20018;-73
2021/10/08 12:09:17;;;;;;;0.10;0.10;;;23.30;83.40;;;;;;2618989;54;20018;-73
2021/10/08 12:11:44;;;;;;;2.08;0.10;;;23.70;83.50;;;;;;2618178;54;20561;-73
2021/10/08 12:14:10;;;;;;;2.35;0.20;;;23.60;83.90;;;;;;2617013;54;20042;-73
2021/10/08 12:16:38;;;;;;;0.52;0.10;;;23.40;83.20;;;;;;2617723;54;20110;-72
2021/10/08 12:19:08;;;;;;;0.75;0.10;;;23.50;81.00;;;;;;2618255;54;20037;-75
2021/10/08 12:21:38;;;;;;;0.57;0.55;;;23.80;81.50;;;;;;2620779;54;20030;-72
2021/10/08 12:24:05;;;;;;;0.68;0.20;;;23.80;79.90;;;;;;2620144;54;20592;-75
2021/10/08 12:26:35;;;;;;;0.65;0.13;;;23.60;80.80;;;;;;2618719;46;20570;-73
2021/10/08 12:29:07;;;;;;;0.73;0.20;;;22.90;79.80;;;;;;2619564;39;20446;-74
2021/10/08 12:31:51;;;;;;;0.70;0.20;;;22.40;81.90;;;;;;2619498;54;20018;-74
2021/10/08 12:34:37;;;;;;;0.28;0.10;;;22.80;80.30;;;;;;2619705;54;20052;-73
2021/10/08 12:37:05;;;;;;;0.88;0.20;;;22.50;79.50;;;;;;2619068;54;20093;-74
2021/10/08 12:39:39;;;;;;;1.17;0.13;;;22.60;80.30;;;;;;2619102;54;20026;-72
2021/10/08 12:42:15;;;;;;;1.85;0.10;;;22.50;79.50;;;;;;2619814;31;20737;-75
2021/10/08 12:44:49;;;;;;;0.30;0.30;;;23.40;81.00;;;;;;2619222;54;20023;-73
2021/10/08 12:47:30;;;;;;;0.75;0.10;;;23.30;77.80;;;;;;2619149;54;20025;-72
2021/10/08 12:50:01;;;;;;;0.57;0.30;;;22.40;78.70;;;;;;2618555;46;20026;-75
2021/10/08 12:52:35;;;;;;;0.55;0.28;;;22.90;80.20;;;;;;2620707;54;20022;-75
2021/10/08 12:55:10;;;;;;;1.75;0.20;;;23.00;79.60;;;;;;2619548;39;20419;-73
2021/10/08 12:57:37;;;;;;;1.77;0.20;;;23.10;76.90;;;;;;2619035;54;20518;-73
2021/10/08 13:00:05;;;;;;;1.30;0.30;;;22.40;80.10;;;;;;2619064;54;20018;-73
2021/10/08 13:02:43;;;;;;;1.38;0.20;;;22.00;80.00;;;;;;2618124;54;20046;-74
2021/10/08 13:05:13;;;;;;;0.50;0.28;;;23.00;83.60;;;;;;2618908;46;20055;-73
2021/10/08 13:07:39;;;;;;;0.85;0.20;;;22.90;82.40;;;;;;2618825;54;20049;-71
2021/10/08 13:10:11;;;;;;;2.05;0.20;;;23.50;81.30;;;;;;2619401;54;20022;-74
2021/10/08 13:12:41;;;;;;;2.58;0.30;;;22.50;81.00;;;;;;2618222;47;20026;-74
2021/10/08 13:15:09;;;;;;;1.05;0.20;;;22.30;81.50;;;;;;2618579;54;20034;-73
2021/10/08 13:17:35;;;;;;;1.67;0.30;;;22.60;81.90;;;;;;2619251;39;20437;-73
2021/10/08 13:20:03;;;;;;;0.95;0.30;;;22.30;82.80;;;;;;2618797;47;20577;-73
2021/10/08 13:22:32;;;;;;;0.80;0.20;;;22.70;83.10;;;;;;2618254;47;20026;-73
2021/10/08 13:24:59;;;;;;;1.30;0.30;;;22.70;80.40;;;;;;2619361;39;20410;-72
2021/10/08 13:27:31;;;;;;;0.93;0.35;;;22.90;80.40;;;;;;2618400;47;20030;-72
2021/10/08 13:29:57;;;;;;;1.25;0.30;;;23.30;81.20;;;;;;2618368;46;20038;-73
2021/10/08 13:32:23;;;;;;;0.73;0.20;;;24.10;80.40;;;;;;2618982;54;20106;-74
2021/10/08 13:34:49;;;;;;;1.27;0.30;;;24.30;80.30;;;;;;2618844;46;20570;-75
2021/10/08 13:37:16;;;;;;;0.28;0.20;;;23.30;78.70;;;;;;2618460;46;20046;-70
2021/10/08 13:39:44;;;;;;;2.05;0.20;;;22.90;79.30;;;;;;2618635;54;20053;-73
2021/10/08 13:42:12;;;;;;;1.05;0.20;;;23.60;79.10;;;;;;2618295;47;20031;-73
2021/10/08 13:44:39;;;;;;;1.23;0.20;;;22.60;78.90;;;;;;2618377;47;20522;-73
2021/10/08 13:47:07;;;;;;;0.70;0.20;;;23.40;78.40;;;;;;2619017;54;20014;-75
2021/10/08 13:49:33;;;;;;;1.40;0.30;;;22.80;76.70;;;;;;2618826;39;20422;-74
2021/10/08 13:52:00;;;;;;;0.32;0.25;;;22.60;79.60;;;;;;2618963;54;20029;-75
2021/10/08 13:54:27;;;;;;;0.40;0.10;;;23.20;78.70;;;;;;2618403;47;20114;-70
2021/10/08 13:56:55;;;;;;;1.17;0.20;;;22.60;79.90;;;;;;2618496;47;20030;-72
2021/10/08 13:59:21;;;;;;;5.32;0.70;;;22.30;79.40;;;;;;2618917;54;20053;-75
2021/10/08 14:04:49;;;;;;;4.13;0.30;;;22.50;78.00;;;;;;2619601;54;20554;-73
2021/10/08 14:12:31;;;;;;;1.45;0.30;;;22.20;77.80;;;;;;2619206;54;20561;-74
2021/10/08 14:14:58;;;;;;;0.63;0.20;;;21.90;78.10;;;;;;2618617;54;20056;-74
2021/10/08 14:17:24;;;;;;;0.50;0.20;;;22.00;77.90;;;;;;2618332;47;20027;-72
2021/10/08 14:19:50;;;;;;;0.32;0.20;;;22.10;79.00;;;;;;2618547;54;20015;-72
2021/10/08 14:22:16;;;;;;;0.68;0.10;;;22.00;77.90;;;;;;2618549;47;20053;-73
2021/10/08 14:24:42;;;;;;;0.50;0.20;;;22.30;79.90;;;;;;2618814;54;20061;-72
2021/10/08 14:27:08;;;;;;;0.50;0.30;;;22.30;80.80;;;;;;2619066;54;20138;-73
2021/10/08 14:29:37;;;;;;;1.02;0.32;;;22.10;78.80;;;;;;2618901;47;20093;-73
2021/10/08 14:32:04;;;;;;;8.63;0.75;;;22.10;82.50;;;;;;2619010;39;20429;-70
2021/10/08 14:34:30;;;;;;;2.13;0.45;;;21.90;80.50;;;;;;2619428;54;20023;-74
2021/10/08 14:36:56;;;;;;;0.90;0.40;;;21.90;80.60;;;;;;2618071;47;20038;-72
2021/10/08 14:39:22;;;;;;;0.88;0.22;;;21.50;81.50;;;;;;2619884;39;20498;-74
2021/10/08 14:41:49;;;;;;;0.80;0.25;;;21.40;82.20;;;;;;2619532;47;20018;-72
2021/10/08 14:44:15;;;;;;;2.65;0.50;;;21.20;83.60;;;;;;2618549;54;20022;-72
2021/10/08 14:46:43;;;;;;;2.25;0.57;;;21.10;83.20;;;;;;2618509;54;20026;-73
2021/10/08 14:49:09;;;;;;;3.58;0.90;;;21.00;83.70;;;;;;2619036;39;20421;-71
2021/10/08 14:51:42;;;;;;;0.85;0.50;;;21.00;84.90;;;;;;2619117;54;20031;-74
2021/10/08 14:54:17;;;;;;;2.57;0.43;;;20.70;86.50;;;;;;2619288;54;20533;-71
2021/10/08 14:59:12;;;;;;;2.05;0.70;;;20.30;89.60;;;;;;2619674;54;20042;-71
2021/10/08 15:01:39;;;;;;;3.60;0.70;;;20.40;90.20;;;;;;2619464;54;20019;-75
2021/10/08 15:04:08;;;;;;;2.17;0.60;;;20.30;90.80;;;;;;2619322;54;20019;-75
2021/10/08 15:06:34;;;;;;;3.63;0.52;;;20.00;91.00;;;;;;2619585;54;20027;-77
2021/10/08 15:09:00;;;;;;;1.42;0.60;;;20.10;91.40;;;;;;2619414;54;20022;-74
2021/10/08 15:11:26;;;;;;;1.83;0.65;;;19.90;91.70;;;;;;2619729;39;20101;-74
2021/10/08 15:13:52;;;;;;;3.20;0.63;;;19.70;92.20;;;;;;2619327;54;20027;-76
2021/10/08 15:16:18;;;;;;;3.83;0.80;;;19.90;92.50;;;;;;2618631;46;21632;-75
2021/10/08 15:18:44;;;;;;;4.00;0.50;;;19.70;92.60;;;;;;2619591;54;20018;-73
2021/10/08 15:21:13;;;;;;;3.13;0.70;;;19.70;93.10;;;;;;2618755;47;20035;-75
2021/10/08 15:23:39;;;;;;;1.25;0.55;;;19.60;93.00;;;;;;2618636;46;20027;-74
2021/10/08 15:26:05;;;;;;;2.65;0.50;;;19.70;92.80;;;;;;2619309;54;20023;-75
2021/10/08 15:28:31;;;;;;;4.93;0.60;;;19.60;93.40;;;;;;2619370;54;20026;-73
2021/10/08 15:30:58;;;;;;;3.58;1.17;;;19.70;93.30;;;;;;2619719;54;20106;-72
2021/10/08 15:33:24;;;;;;;4.03;0.63;;;19.60;93.50;;;;;;2619302;54;20149;-75
2021/10/08 15:35:51;;;;;;;4.22;0.50;;;19.60;93.30;;;;;;2619412;54;20019;-74
2021/10/08 15:38:19;;;;;;;1.45;0.65;;;19.60;93.50;;;;;;2619991;54;20046;-76
2021/10/08 15:40:45;;;;;;;1.70;0.40;;;19.50;93.60;;;;;;2620196;39;20430;-75
2021/10/08 15:43:12;;;;;;;2.92;0.68;;;19.50;93.50;;;;;;2619787;54;20023;-73
2021/10/08 15:45:39;;;;;;;3.20;0.80;;;19.50;93.80;;;;;;2619621;54;20030;-74
2021/10/08 15:48:05;;;;;;;3.40;0.60;;;19.40;93.50;;;;;;2619379;54;20042;-75
2021/10/08 15:50:31;;;;;;;3.33;0.50;;;19.30;93.60;;;;;;2618346;47;20027;-76
2021/10/08 15:52:57;;;;;;;2.08;0.60;;;19.40;94.20;;;;;;2618745;46;20054;-76
2021/10/08 15:55:26;;;;;;;1.08;0.50;;;19.30;94.60;;;;;;2620258;39;20418;-75
2021/10/08 15:57:52;;;;;;;1.83;0.70;;;19.30;94.20;;;;;;2619459;54;20018;-75
2021/10/08 16:00:19;;;;;;;2.70;0.50;;;19.20;94.50;;;;;;2619092;39;20425;-74
2021/10/08 16:02:45;;;;;;;3.50;0.77;;;19.30;94.70;;;;;;2619344;54;20058;-75
2021/10/08 16:05:11;;;;;;;3.25;0.43;;;19.20;94.70;;;;;;2619291;54;20046;-73
2021/10/08 16:07:37;;;;;;;7.65;0.93;;;19.10;94.60;;;;;;2619121;54;20070;-74
2021/10/08 16:10:04;;;;;;;3.70;0.40;;;19.20;95.00;;;;;;2619416;54;20049;-75
2021/10/08 16:12:33;;;;;;;3.50;0.50;;;19.20;95.30;;;;;;2618696;46;20033;-74
2021/10/08 16:14:59;;;;;;;1.52;0.50;;;19.10;95.10;;;;;;2619187;54;20031;-75
2021/10/08 16:17:26;;;;;;;3.95;0.40;;;19.10;95.70;;;;;;2617733;54;20034;-75
2021/10/08 16:19:52;;;;;;;0.90;0.60;;;19.10;95.30;;;;;;2619200;54;20022;-72
2021/10/08 16:22:18;;;;;;;6.25;0.70;;;19.00;95.40;;;;;;2619237;54;20026;-74
2021/10/08 16:24:45;;;;;;;3.40;0.80;;;19.00;95.60;;;;;;2619314;54;20130;-75
2021/10/08 16:27:12;;;;;;;7.38;0.52;;;18.80;95.50;;;;;;2618733;46;20546;-75
2021/10/08 16:29:41;;;;;;;5.40;0.85;;;18.90;95.20;;;;;;2618572;46;20030;-74
2021/10/08 16:32:07;;;;;;;1.50;0.40;;;18.80;95.40;;;;;;2618549;47;20053;-74
2021/10/08 16:34:34;;;;;;;1.65;0.40;;;18.70;95.10;;;;;;2619025;39;20433;-74
2021/10/08 16:37:01;;;;;;;15.00;0.77;;;18.80;95.40;;;;;;2619601;39;20426;-75
2021/10/08 16:39:30;;;;;;;1.98;0.73;;;18.80;95.70;;;;;;2618707;47;20030;-75
2021/10/08 16:41:56;;;;;;;2.05;0.50;;;18.60;96.70;;;;;;2619092;54;20030;-73
2021/10/08 16:44:23;;;;;;;2.45;0.70;;;18.60;97.20;;;;;;2618407;47;20050;-74
2021/10/08 16:46:51;;;;;;;2.92;0.65;;;18.60;97.50;;;;;;2619421;39;20413;-75
2021/10/08 16:49:17;;;;;;;2.90;0.85;;;18.50;97.90;;;;;;2619191;54;20030;-74
2021/10/08 16:51:44;;;;;;;3.85;1.10;;;18.60;98.20;;;;;;2619166;54;20026;-76
2021/10/08 16:54:20;;;;;;;2.58;0.57;;;18.70;98.60;;;;;;2619029;54;20022;-75
2021/10/08 16:56:46;;;;;;;2.67;0.88;;;18.50;98.80;;;;;;2619201;54;20018;-74
2021/10/08 16:59:12;;;;;;;2.58;0.82;;;18.40;99.20;;;;;;2619263;54;20130;-77
2021/10/08 17:01:38;;;;;;;2.45;0.80;;;18.50;99.00;;;;;;2619040;54;20125;-74
2021/10/08 17:04:07;;;;;;;2.63;0.63;;;18.30;99.10;;;;;;2619146;54;20019;-74
2021/10/08 17:06:33;;;;;;;2.10;1.30;;;18.40;99.20;;;;;;2619168;54;20022;-76
2021/10/08 17:08:59;;;;;;;4.70;1.08;;;18.30;99.50;;;;;;2619018;39;20418;-74
2021/10/08 17:11:26;;;;;;;7.60;1.50;;;18.20;99.90;;;;;;2618550;46;20542;-75
2021/10/08 17:13:52;;;;;;;3.08;0.70;;;17.90;99.90;;;;;;2618981;54;20019;-76
2021/10/08 17:16:18;;;;;;;1.95;0.82;;;17.90;99.90;;;;;;2619103;54;20026;-76
2021/10/08 17:18:44;;;;;;;2.50;1.25;;;18.00;99.90;;;;;;2618916;54;20034;-75
2021/10/08 17:21:13;;;;;;;1.88;0.88;;;18.20;99.90;;;;;;2619188;54;20022;-74
2021/10/08 17:23:59;;;;;;;1.52;0.80;;;18.30;99.90;;;;;;2618874;54;20026;-74
2021/10/08 17:29:17;;;;;;;4.55;1.05;;;18.00;99.90;;;;;;2619291;54;20034;-74
2021/10/08 17:34:28;;;;;;;3.05;0.70;;;17.90;99.90;;;;;;2619340;54;20086;-76
2021/10/08 17:36:57;;;;;;;2.28;1.20;;;17.90;99.90;;;;;;2618871;54;20027;-75
2021/10/08 17:39:23;;;;;;;1.42;0.68;;;17.90;99.90;;;;;;2619093;54;20541;-76
2021/10/08 17:41:49;;;;;;;4.20;1.02;;;17.90;99.90;;;;;;2618950;54;20025;-74
2021/10/08 17:44:15;;;;;;;2.03;0.90;;;17.80;99.90;;;;;;2618734;54;20022;-73
2021/10/08 17:46:42;;;;;;;1.70;0.90;;;17.80;99.90;;;;;;2619039;54;20018;-74
2021/10/08 17:49:09;;;;;;;2.67;0.85;;;17.80;99.90;;;;;;2619027;39;20454;-75
2021/10/08 17:51:35;;;;;;;3.63;1.77;;;17.70;99.90;;;;;;2619681;31;20470;-75
2021/10/08 17:54:03;;;;;;;2.00;0.70;;;17.60;99.90;;;;;;2618674;54;20110;-75
2021/10/08 17:56:29;;;;;;;4.68;0.90;;;17.40;99.90;;;;;;2618923;54;20526;-75
2021/10/08 17:58:59;;;;;;;5.00;1.17;;;17.50;99.90;;;;;;2618361;47;20557;-74
2021/10/08 18:01:32;;;;;;;3.78;0.80;;;17.20;99.90;;;;;;2619326;39;20423;-72
2021/10/08 18:03:58;;;;;;;2.05;0.43;;;17.10;99.90;;;;;;2618943;54;20025;-74
2021/10/08 18:06:25;;;;;;;2.28;0.93;;;17.10;99.90;;;;;;2619399;47;20026;-75
2021/10/08 18:08:51;;;;;;;3.53;0.80;;;17.10;99.90;;;;;;2619219;39;20429;-74
2021/10/08 18:11:19;;;;;;;5.15;0.80;;;17.10;99.90;;;;;;2618848;54;20034;-73
2021/10/08 18:13:46;;;;;;;2.03;0.60;;;17.30;99.90;;;;;;2618752;54;20090;-73
2021/10/08 18:16:14;;;;;;;5.00;1.00;;;17.30;99.90;;;;;;2618657;54;20026;-75
2021/10/08 18:18:40;;;;;;;2.00;0.85;;;17.30;99.90;;;;;;2618488;39;20398;-74
2021/10/08 18:21:07;;;;;;;6.22;0.68;;;17.30;99.90;;;;;;2618064;47;20026;-71
2021/10/08 18:23:34;;;;;;;2.38;0.60;;;17.30;99.90;;;;;;2618692;54;20053;-74
2021/10/08 18:26:01;;;;;;;5.25;1.25;;;17.20;99.90;;;;;;2619075;54;20026;-78
2021/10/08 18:28:30;;;;;;;2.53;0.60;;;17.10;99.90;;;;;;2618812;47;20221;-74
2021/10/08 18:30:58;;;;;;;2.08;0.90;;;17.10;99.90;;;;;;2619379;54;20054;-75
2021/10/08 18:33:26;;;;;;;1.88;1.13;;;17.20;99.90;;;;;;2619455;54;20085;-74
2021/10/08 18:35:52;;;;;;;2.75;0.70;;;17.10;99.90;;;;;;2619270;54;20022;-71
2021/10/08 18:38:18;;;;;;;2.20;0.40;;;17.20;99.90;;;;;;2620342;31;20444;-73
2021/10/08 18:40:44;;;;;;;2.45;0.60;;;17.20;99.90;;;;;;2618712;47;20018;-74
2021/10/08 18:43:10;;;;;;;3.30;0.70;;;17.00;99.90;;;;;;2618699;47;20053;-73
2021/10/08 18:45:40;;;;;;;1.77;0.70;;;16.90;99.90;;;;;;2619337;54;20014;-74
2021/10/08 18:48:06;;;;;;;1.45;0.75;;;16.70;99.90;;;;;;2619362;54;20022;-71
2021/10/08 18:50:33;;;;;;;4.05;0.80;;;16.60;99.90;;;;;;2619390;54;20022;-72
2021/10/08 18:52:59;;;;;;;2.08;0.75;;;16.60;99.90;;;;;;2619396;54;20029;-73
2021/10/08 18:55:26;;;;;;;2.05;0.70;;;16.60;99.90;;;;;;2618760;46;20026;-74
2021/10/08 18:57:52;;;;;;;4.43;0.93;;;16.70;99.90;;;;;;2619301;54;20015;-71
2021/10/08 19:00:19;;;;;;;2.45;0.70;;;16.80;99.90;;;;;;2618669;46;20030;-75
2021/10/08 19:02:47;;;;;;;1.13;0.70;;;16.90;99.90;;;;;;2619396;54;20022;-74
2021/10/08 19:05:14;;;;;;;2.65;0.90;;;16.90;99.90;;;;;;2619133;54;20014;-74
2021/10/08 19:07:48;;;;;;;1.75;0.90;;;16.80;99.90;;;;;;2619336;54;20018;-73
2021/10/08 19:12:56;;;;;;;3.55;1.85;;;16.80;99.90;;;;;;2619380;54;20038;-75
2021/10/08 19:15:31;;;;;;;6.32;2.17;;;16.60;99.90;;;;;;2619364;54;20041;-73
2021/10/08 19:20:45;;;;;;;4.65;2.22;;;16.40;99.90;;;;;;2619405;54;20057;-73
2021/10/08 19:23:11;;;;;;;5.75;3.20;;;16.40;99.90;;;;;;2618777;46;20057;-73
2021/10/08 19:25:38;;;;;;;24.00;10.93;;;16.40;99.90;;;;;;2619045;54;20049;-73
2021/10/08 19:28:05;;;;;;;22.85;10.82;;;16.40;99.90;;;;;;2619142;54;20019;-72
2021/10/08 19:30:32;;;;;;;29.35;12.57;;;16.30;99.90;;;;;;2619272;54;20105;-75
2021/10/08 19:33:01;;;;;;;19.88;9.18;;;16.40;99.90;;;;;;2619085;54;20015;-73
2021/10/08 19:35:27;;;;;;;15.20;7.20;;;16.50;99.90;;;;;;2619217;54;20113;-73
2021/10/08 19:37:53;;;;;;;5.90;3.15;;;16.50;99.90;;;;;;2619050;54;20549;-73
2021/10/08 19:40:19;;;;;;;3.83;1.70;;;16.30;99.90;;;;;;2618547;47;20518;-75
2021/10/08 19:42:48;;;;;;;4.20;2.00;;;16.20;99.90;;;;;;2618552;46;20030;-74
2021/10/08 19:45:22;;;;;;;5.28;1.40;;;16.20;99.90;;;;;;2618505;46;20027;-74
2021/10/08 19:47:48;;;;;;;3.42;1.35;;;16.30;99.90;;;;;;2619162;54;20045;-74
2021/10/08 19:50:17;;;;;;;3.92;1.20;;;16.30;99.90;;;;;;2618610;46;20029;-75
2021/10/08 19:52:43;;;;;;;4.32;1.55;;;16.10;99.90;;;;;;2619123;54;20582;-73
2021/10/08 19:55:10;;;;;;;3.08;1.65;;;16.00;99.90;;;;;;2619106;54;20118;-74
2021/10/08 19:57:37;;;;;;;2.03;1.10;;;16.00;99.90;;;;;;2619558;39;20410;-75
2021/10/08 20:00:04;;;;;;;3.83;1.33;;;16.00;99.90;;;;;;2619127;54;20530;-74
2021/10/08 20:05:33;;;;;;;3.88;1.15;;;16.10;99.90;;;;;;2617692;54;20027;-74
2021/10/08 20:15:56;;;;;;;4.00;1.38;;;16.30;99.90;;;;;;2617819;54;20046;-74
2021/10/08 20:18:22;;;;;;;3.50;1.05;;;16.20;99.90;;;;;;2617286;54;21579;-72
2021/10/08 20:20:52;;;;;;;2.75;0.80;;;16.30;99.90;;;;;;2617770;54;20027;-74
2021/10/08 20:23:19;;;;;;;4.93;1.65;;;16.30;99.90;;;;;;2617629;54;20052;-72
2021/10/08 20:25:45;;;;;;;4.15;0.85;;;16.40;99.90;;;;;;2617609;54;20526;-74
2021/10/08 20:28:13;;;;;;;3.95;1.35;;;16.40;99.90;;;;;;2617751;47;20106;-71
2021/10/08 20:30:39;;;;;;;5.95;1.70;;;16.30;99.90;;;;;;2618910;54;20146;-73
2021/10/08 20:33:06;;;;;;;9.95;1.90;;;16.30;99.90;;;;;;2618330;46;20030;-73
2021/10/08 20:35:32;;;;;;;3.03;1.30;;;16.00;99.90;;;;;;2618981;54;20106;-75
2021/10/08 20:38:01;;;;;;;4.00;1.40;;;15.80;99.90;;;;;;2618372;46;20027;-74
2021/10/08 20:40:27;;;;;;;3.53;1.52;;;15.80;99.90;;;;;;2619046;54;20538;-71
2021/10/08 20:42:53;;;;;;;3.40;1.55;;;15.60;99.90;;;;;;2618420;46;20027;-74
2021/10/08 20:45:19;;;;;;;3.47;1.73;;;15.60;99.90;;;;;;2618961;54;20061;-74
2021/10/08 20:47:45;;;;;;;3.80;1.63;;;15.60;99.90;;;;;;2617990;47;20031;-73